TAM6AC SLLP-SLVR
Flight info
| Callsign | TAM6AC |
|---|---|
| Flight time | 0h 52m |
| Altitude | 35000 |
| Route | DAKOG UW677 VIR |
| Aircraft | A320/M-SDE3FGHIRWY/LB1 |
Departure
| Time | 2026-05-04 20:25 |
|---|---|
| Airport | El Alto International Airport (SLLP) |
Arrival
| Time | 2026-05-04 21:17 |
|---|---|
| Airport | Viru Viru International Airport (SLVR) |
| Time | Latitude | Longitude | Altitude | Speed | Heading |
|---|---|---|---|---|---|
| 2026-05-04 20:03 | -16.50984 | -68.17655 | 13336 ft | 0 kts | 2° |
| 2026-05-04 20:14 | -16.50992 | -68.17655 | 13334 ft | 4 kts | 1° |
| 2026-05-04 20:15 | -16.51019 | -68.17654 | 13336 ft | 4 kts | 352° |
| 2026-05-04 20:15 | -16.51045 | -68.17648 | 13334 ft | 4 kts | 330° |
| 2026-05-04 20:15 | -16.51060 | -68.17634 | 13335 ft | 1 kts | 299° |
| 2026-05-04 20:17 | -16.51057 | -68.17639 | 13335 ft | 4 kts | 299° |
| 2026-05-04 20:18 | -16.51044 | -68.17664 | 13335 ft | 5 kts | 299° |
| 2026-05-04 20:18 | -16.51024 | -68.17702 | 13334 ft | 9 kts | 299° |
| 2026-05-04 20:19 | -16.50993 | -68.17781 | 13336 ft | 13 kts | 276° |
| 2026-05-04 20:19 | -16.51000 | -68.17880 | 13335 ft | 14 kts | 247° |
| 2026-05-04 20:19 | -16.51070 | -68.17959 | 13334 ft | 16 kts | 225° |
| 2026-05-04 20:19 | -16.51161 | -68.18060 | 13323 ft | 23 kts | 227° |
| 2026-05-04 20:20 | -16.51281 | -68.18205 | 13302 ft | 27 kts | 236° |
| 2026-05-04 20:20 | -16.51348 | -68.18393 | 13299 ft | 29 kts | 259° |
| 2026-05-04 20:20 | -16.51354 | -68.18611 | 13295 ft | 31 kts | 272° |
| 2026-05-04 20:20 | -16.51345 | -68.18840 | 13291 ft | 32 kts | 272° |
| 2026-05-04 20:21 | -16.51337 | -68.19082 | 13285 ft | 35 kts | 272° |
| 2026-05-04 20:21 | -16.51327 | -68.19349 | 13277 ft | 39 kts | 272° |
| 2026-05-04 20:21 | -16.51309 | -68.19934 | 13235 ft | 40 kts | 272° |
| 2026-05-04 20:22 | -16.51301 | -68.20243 | 13210 ft | 44 kts | 271° |
| 2026-05-04 20:22 | -16.51294 | -68.20554 | 13187 ft | 42 kts | 272° |
| 2026-05-04 20:22 | -16.51284 | -68.20853 | 13168 ft | 30 kts | 272° |
| 2026-05-04 20:22 | -16.51270 | -68.21003 | 13162 ft | 13 kts | 290° |
| 2026-05-04 20:23 | -16.51254 | -68.21066 | 13159 ft | 8 kts | 245° |
| 2026-05-04 20:23 | -16.51274 | -68.21061 | 13160 ft | 4 kts | 126° |
| 2026-05-04 20:23 | -16.51277 | -68.21037 | 13161 ft | 0 kts | 89° |
| 2026-05-04 20:23 | -16.51277 | -68.21017 | 13161 ft | 18 kts | 90° |
| 2026-05-04 20:24 | -16.51287 | -68.20668 | 13178 ft | 77 kts | 92° |
| 2026-05-04 20:24 | -16.51309 | -68.19950 | 13233 ft | 122 kts | 92° |
| 2026-05-04 20:24 | -16.51342 | -68.18919 | 13285 ft | 162 kts | 92° |
| 2026-05-04 20:24 | -16.51382 | -68.17633 | 13569 ft | 181 kts | 91° |
| 2026-05-04 20:25 | -16.51409 | -68.16313 | 14370 ft | 185 kts | 90° |
| 2026-05-04 20:25 | -16.51417 | -68.14933 | 14671 ft | 197 kts | 90° |
| 2026-05-04 20:25 | -16.51680 | -68.13487 | 14886 ft | 212 kts | 116° |
| 2026-05-04 20:25 | -16.52675 | -68.12318 | 15125 ft | 226 kts | 149° |
| 2026-05-04 20:26 | -16.54197 | -68.11758 | 15394 ft | 239 kts | 164° |
| 2026-05-04 20:26 | -16.55858 | -68.11290 | 15562 ft | 254 kts | 163° |
| 2026-05-04 20:26 | -16.57577 | -68.10761 | 15878 ft | 260 kts | 162° |
| 2026-05-04 20:26 | -16.59315 | -68.10202 | 16263 ft | 262 kts | 162° |
| 2026-05-04 20:27 | -16.61094 | -68.09621 | 16553 ft | 274 kts | 161° |
| 2026-05-04 20:27 | -16.62928 | -68.09010 | 17107 ft | 278 kts | 161° |
| 2026-05-04 20:27 | -16.64700 | -68.08215 | 17702 ft | 279 kts | 147° |
| 2026-05-04 20:27 | -16.66205 | -68.06937 | 18262 ft | 281 kts | 133° |
| 2026-05-04 20:28 | -16.67525 | -68.05412 | 18821 ft | 284 kts | 131° |
| 2026-05-04 20:28 | -16.68849 | -68.03868 | 19340 ft | 286 kts | 131° |
| 2026-05-04 20:28 | -16.70177 | -68.02318 | 19851 ft | 288 kts | 131° |
| 2026-05-04 20:28 | -16.71524 | -68.00756 | 20364 ft | 290 kts | 131° |
| 2026-05-04 20:29 | -16.72881 | -67.99179 | 20853 ft | 294 kts | 131° |
| 2026-05-04 20:29 | -16.74132 | -67.97481 | 21323 ft | 297 kts | 120° |
| 2026-05-04 20:29 | -16.75000 | -67.95498 | 21647 ft | 308 kts | 107° |
| 2026-05-04 20:29 | -16.75579 | -67.93281 | 21762 ft | 326 kts | 104° |
| 2026-05-04 20:30 | -16.76154 | -67.90927 | 21866 ft | 343 kts | 104° |
| 2026-05-04 20:30 | -16.76759 | -67.88459 | 21994 ft | 359 kts | 104° |
| 2026-05-04 20:30 | -16.77389 | -67.85881 | 22107 ft | 375 kts | 104° |
| 2026-05-04 20:30 | -16.78057 | -67.83193 | 22238 ft | 390 kts | 104° |
| 2026-05-04 20:31 | -16.78750 | -67.80413 | 22477 ft | 401 kts | 104° |
| 2026-05-04 20:31 | -16.79458 | -67.77574 | 22873 ft | 406 kts | 104° |
| 2026-05-04 20:31 | -16.80170 | -67.74701 | 23344 ft | 410 kts | 104° |
| 2026-05-04 20:31 | -16.80892 | -67.71812 | 23784 ft | 413 kts | 104° |
| 2026-05-04 20:32 | -16.81604 | -67.68929 | 24164 ft | 417 kts | 104° |
| 2026-05-04 20:32 | -16.82326 | -67.65988 | 24551 ft | 421 kts | 104° |
| 2026-05-04 20:32 | -16.83070 | -67.63013 | 24908 ft | 425 kts | 104° |
| 2026-05-04 20:32 | -16.83819 | -67.60010 | 25286 ft | 429 kts | 104° |
| 2026-05-04 20:33 | -16.84569 | -67.56991 | 25675 ft | 432 kts | 104° |
| 2026-05-04 20:33 | -16.85321 | -67.53937 | 26057 ft | 436 kts | 103° |
| 2026-05-04 20:33 | -16.85823 | -67.51905 | 26314 ft | 438 kts | 104° |
| 2026-05-04 20:33 | -16.86593 | -67.48778 | 26713 ft | 440 kts | 104° |
| 2026-05-04 20:34 | -16.87352 | -67.45714 | 27068 ft | 444 kts | 103° |
| 2026-05-04 20:34 | -16.88130 | -67.42541 | 27445 ft | 446 kts | 103° |
| 2026-05-04 20:34 | -16.88897 | -67.39440 | 27849 ft | 449 kts | 104° |
| 2026-05-04 20:34 | -16.89790 | -67.36301 | 28216 ft | 452 kts | 110° |
| 2026-05-04 20:35 | -16.91042 | -67.33278 | 28552 ft | 456 kts | 114° |
| 2026-05-04 20:35 | -16.92396 | -67.30271 | 28898 ft | 459 kts | 114° |
| 2026-05-04 20:35 | -16.93753 | -67.27242 | 29265 ft | 462 kts | 114° |
| 2026-05-04 20:35 | -16.95115 | -67.24192 | 29617 ft | 465 kts | 114° |
| 2026-05-04 20:36 | -16.96481 | -67.21116 | 29974 ft | 468 kts | 114° |
| 2026-05-04 20:36 | -16.97846 | -67.18024 | 30326 ft | 470 kts | 114° |
| 2026-05-04 20:36 | -16.99226 | -67.14909 | 30617 ft | 473 kts | 115° |
| 2026-05-04 20:36 | -17.00618 | -67.11786 | 30916 ft | 475 kts | 115° |
| 2026-05-04 20:37 | -17.02012 | -67.08645 | 31185 ft | 478 kts | 115° |
| 2026-05-04 20:37 | -17.03409 | -67.05476 | 31452 ft | 481 kts | 115° |
| 2026-05-04 20:37 | -17.04807 | -67.02298 | 31719 ft | 483 kts | 115° |
| 2026-05-04 20:37 | -17.06196 | -66.99147 | 32097 ft | 482 kts | 115° |
| 2026-05-04 20:38 | -17.07628 | -66.95922 | 32441 ft | 484 kts | 115° |
| 2026-05-04 20:38 | -17.09023 | -66.92768 | 32785 ft | 484 kts | 115° |
| 2026-05-04 20:38 | -17.10450 | -66.89524 | 33169 ft | 485 kts | 115° |
| 2026-05-04 20:38 | -17.11857 | -66.86331 | 33601 ft | 483 kts | 115° |
| 2026-05-04 20:39 | -17.13250 | -66.83187 | 34034 ft | 482 kts | 116° |
| 2026-05-04 20:39 | -17.14656 | -66.80008 | 34410 ft | 482 kts | 116° |
| 2026-05-04 20:39 | -17.16062 | -66.76829 | 34743 ft | 482 kts | 115° |
| 2026-05-04 20:39 | -17.17463 | -66.73652 | 35082 ft | 478 kts | 115° |
| 2026-05-04 20:40 | -17.18849 | -66.70510 | 35189 ft | 473 kts | 116° |
| 2026-05-04 20:40 | -17.20229 | -66.67391 | 35216 ft | 472 kts | 116° |
| 2026-05-04 20:40 | -17.22989 | -66.61174 | 35244 ft | 470 kts | 116° |
| 2026-05-04 20:41 | -17.25745 | -66.54979 | 35243 ft | 469 kts | 116° |
| 2026-05-04 20:41 | -17.28489 | -66.48773 | 35238 ft | 470 kts | 116° |
| 2026-05-04 20:42 | -17.31240 | -66.42579 | 35228 ft | 470 kts | 116° |
| 2026-05-04 20:42 | -17.33979 | -66.36356 | 35228 ft | 470 kts | 116° |
| 2026-05-04 20:43 | -17.36727 | -66.30155 | 35209 ft | 470 kts | 116° |
| 2026-05-04 20:43 | -17.39489 | -66.23897 | 35216 ft | 470 kts | 116° |
| 2026-05-04 20:44 | -17.41896 | -66.17605 | 35219 ft | 470 kts | 104° |
| 2026-05-04 20:44 | -17.42655 | -66.10862 | 35223 ft | 470 kts | 93° |
| 2026-05-04 20:45 | -17.43083 | -66.04029 | 35217 ft | 470 kts | 94° |
| 2026-05-04 20:45 | -17.43558 | -65.97200 | 35222 ft | 470 kts | 94° |
| 2026-05-04 20:46 | -17.44031 | -65.90381 | 35205 ft | 469 kts | 94° |
| 2026-05-04 20:46 | -17.44486 | -65.83574 | 35222 ft | 468 kts | 94° |
| 2026-05-04 20:47 | -17.44942 | -65.76773 | 35217 ft | 468 kts | 94° |
| 2026-05-04 20:47 | -17.45399 | -65.69970 | 35230 ft | 468 kts | 94° |
| 2026-05-04 20:48 | -17.45843 | -65.63164 | 35228 ft | 468 kts | 94° |
| 2026-05-04 20:48 | -17.46289 | -65.56367 | 35234 ft | 468 kts | 94° |
| 2026-05-04 20:49 | -17.46749 | -65.49577 | 35238 ft | 467 kts | 94° |
| 2026-05-04 20:49 | -17.47207 | -65.42791 | 35225 ft | 466 kts | 94° |
| 2026-05-04 20:50 | -17.47652 | -65.36017 | 35202 ft | 466 kts | 94° |
| 2026-05-04 20:50 | -17.48116 | -65.29300 | 35205 ft | 466 kts | 95° |
| 2026-05-04 20:51 | -17.48586 | -65.22487 | 35168 ft | 466 kts | 95° |
| 2026-05-04 20:51 | -17.49046 | -65.15756 | 35165 ft | 467 kts | 95° |
| 2026-05-04 20:52 | -17.49516 | -65.08964 | 35026 ft | 470 kts | 95° |
| 2026-05-04 20:52 | -17.49753 | -65.05559 | 34794 ft | 468 kts | 95° |
| 2026-05-04 20:52 | -17.49978 | -65.02161 | 34563 ft | 467 kts | 95° |
| 2026-05-04 20:53 | -17.50209 | -64.98779 | 34342 ft | 465 kts | 94° |
| 2026-05-04 20:53 | -17.50429 | -64.95413 | 34088 ft | 461 kts | 95° |
| 2026-05-04 20:53 | -17.50657 | -64.92069 | 33828 ft | 459 kts | 95° |
| 2026-05-04 20:53 | -17.50885 | -64.88744 | 33505 ft | 454 kts | 95° |
| 2026-05-04 20:54 | -17.51113 | -64.85467 | 32983 ft | 450 kts | 95° |
| 2026-05-04 20:54 | -17.51332 | -64.82210 | 32497 ft | 447 kts | 94° |
| 2026-05-04 20:54 | -17.51545 | -64.78973 | 32005 ft | 443 kts | 94° |
| 2026-05-04 20:54 | -17.51758 | -64.75764 | 31528 ft | 440 kts | 94° |
| 2026-05-04 20:55 | -17.51971 | -64.72572 | 31024 ft | 437 kts | 94° |
| 2026-05-04 20:55 | -17.52175 | -64.69402 | 30548 ft | 435 kts | 94° |
| 2026-05-04 20:55 | -17.52385 | -64.66255 | 30081 ft | 432 kts | 94° |
| 2026-05-04 20:55 | -17.52594 | -64.63128 | 29575 ft | 429 kts | 94° |
| 2026-05-04 20:56 | -17.52795 | -64.60027 | 29114 ft | 424 kts | 94° |
| 2026-05-04 20:56 | -17.52997 | -64.56963 | 28658 ft | 420 kts | 94° |
| 2026-05-04 20:56 | -17.53195 | -64.53925 | 28209 ft | 415 kts | 94° |
| 2026-05-04 20:56 | -17.53407 | -64.50927 | 27784 ft | 411 kts | 94° |
| 2026-05-04 20:57 | -17.53627 | -64.47952 | 27324 ft | 408 kts | 94° |
| 2026-05-04 20:57 | -17.53837 | -64.45001 | 26884 ft | 404 kts | 94° |
| 2026-05-04 20:57 | -17.54042 | -64.42072 | 26438 ft | 401 kts | 94° |
| 2026-05-04 20:57 | -17.54238 | -64.39177 | 25994 ft | 398 kts | 94° |
| 2026-05-04 20:58 | -17.54441 | -64.36295 | 25541 ft | 395 kts | 94° |
| 2026-05-04 20:58 | -17.54640 | -64.33433 | 25060 ft | 393 kts | 94° |
| 2026-05-04 20:58 | -17.54845 | -64.30586 | 24592 ft | 391 kts | 94° |
| 2026-05-04 20:58 | -17.55046 | -64.27755 | 24131 ft | 389 kts | 94° |
| 2026-05-04 20:59 | -17.55245 | -64.24933 | 23658 ft | 387 kts | 94° |
| 2026-05-04 20:59 | -17.55434 | -64.22120 | 23100 ft | 385 kts | 94° |
| 2026-05-04 20:59 | -17.55626 | -64.19339 | 22647 ft | 381 kts | 94° |
| 2026-05-04 20:59 | -17.55820 | -64.16579 | 22192 ft | 378 kts | 93° |
| 2026-05-04 21:00 | -17.56010 | -64.13841 | 21736 ft | 376 kts | 93° |
| 2026-05-04 21:00 | -17.56205 | -64.11119 | 21270 ft | 373 kts | 94° |
| 2026-05-04 21:00 | -17.56394 | -64.08417 | 20794 ft | 371 kts | 93° |
| 2026-05-04 21:00 | -17.56579 | -64.05730 | 20365 ft | 369 kts | 93° |
| 2026-05-04 21:01 | -17.56762 | -64.03058 | 19919 ft | 367 kts | 93° |
| 2026-05-04 21:01 | -17.56942 | -64.00396 | 19475 ft | 365 kts | 93° |
| 2026-05-04 21:01 | -17.57121 | -63.97748 | 19020 ft | 363 kts | 92° |
| 2026-05-04 21:01 | -17.57292 | -63.95121 | 18592 ft | 361 kts | 93° |
| 2026-05-04 21:02 | -17.57471 | -63.92535 | 18169 ft | 359 kts | 92° |
| 2026-05-04 21:02 | -17.57648 | -63.89900 | 17715 ft | 356 kts | 93° |
| 2026-05-04 21:02 | -17.57818 | -63.87356 | 17279 ft | 354 kts | 93° |
| 2026-05-04 21:02 | -17.57995 | -63.84793 | 16842 ft | 351 kts | 93° |
| 2026-05-04 21:03 | -17.58168 | -63.82254 | 16434 ft | 348 kts | 93° |
| 2026-05-04 21:03 | -17.58339 | -63.79724 | 16032 ft | 346 kts | 93° |
| 2026-05-04 21:03 | -17.58513 | -63.77212 | 15638 ft | 344 kts | 93° |
| 2026-05-04 21:03 | -17.58680 | -63.74715 | 15246 ft | 343 kts | 92° |
| 2026-05-04 21:04 | -17.58845 | -63.72229 | 14836 ft | 342 kts | 93° |
| 2026-05-04 21:04 | -17.59012 | -63.69752 | 14447 ft | 341 kts | 92° |
| 2026-05-04 21:04 | -17.59177 | -63.67277 | 14061 ft | 340 kts | 92° |
| 2026-05-04 21:04 | -17.59344 | -63.64802 | 13643 ft | 340 kts | 93° |
| 2026-05-04 21:05 | -17.59513 | -63.62333 | 13217 ft | 339 kts | 92° |
| 2026-05-04 21:05 | -17.59672 | -63.59866 | 12799 ft | 338 kts | 92° |
| 2026-05-04 21:05 | -17.59838 | -63.57415 | 12396 ft | 337 kts | 92° |
| 2026-05-04 21:05 | -17.59999 | -63.54965 | 11992 ft | 336 kts | 92° |
| 2026-05-04 21:06 | -17.60157 | -63.52515 | 11575 ft | 336 kts | 90° |
| 2026-05-04 21:06 | -17.60316 | -63.50070 | 11168 ft | 336 kts | 91° |
| 2026-05-04 21:06 | -17.60477 | -63.47661 | 10749 ft | 336 kts | 92° |
| 2026-05-04 21:06 | -17.60644 | -63.45220 | 10337 ft | 335 kts | 92° |
| 2026-05-04 21:07 | -17.60807 | -63.42752 | 9954 ft | 333 kts | 91° |
| 2026-05-04 21:07 | -17.60959 | -63.40399 | 9748 ft | 325 kts | 91° |
| 2026-05-04 21:07 | -17.61112 | -63.38050 | 9385 ft | 321 kts | 90° |
| 2026-05-04 21:07 | -17.61259 | -63.35730 | 8996 ft | 318 kts | 90° |
| 2026-05-04 21:08 | -17.61407 | -63.33429 | 8606 ft | 315 kts | 90° |
| 2026-05-04 21:08 | -17.61558 | -63.31142 | 8193 ft | 314 kts | 90° |
| 2026-05-04 21:08 | -17.61704 | -63.28855 | 7765 ft | 313 kts | 89° |
| 2026-05-04 21:08 | -17.61849 | -63.26598 | 7261 ft | 307 kts | 88° |
| 2026-05-04 21:09 | -17.61996 | -63.24381 | 6722 ft | 301 kts | 89° |
| 2026-05-04 21:09 | -17.62138 | -63.22237 | 6331 ft | 290 kts | 88° |
| 2026-05-04 21:09 | -17.62274 | -63.20166 | 5909 ft | 280 kts | 88° |
| 2026-05-04 21:09 | -17.62406 | -63.18146 | 5522 ft | 275 kts | 88° |
| 2026-05-04 21:10 | -17.62600 | -63.16151 | 5142 ft | 278 kts | 96° |
| 2026-05-04 21:10 | -17.63216 | -63.14204 | 4765 ft | 284 kts | 112° |
| 2026-05-04 21:10 | -17.64294 | -63.12416 | 4619 ft | 297 kts | 124° |
| 2026-05-04 21:10 | -17.65525 | -63.10726 | 4375 ft | 288 kts | 125° |
| 2026-05-04 21:11 | -17.66724 | -63.09099 | 4120 ft | 279 kts | 125° |
| 2026-05-04 21:11 | -17.67895 | -63.07499 | 3863 ft | 273 kts | 124° |
| 2026-05-04 21:11 | -17.69041 | -63.05926 | 3622 ft | 268 kts | 125° |
| 2026-05-04 21:11 | -17.70114 | -63.04506 | 3387 ft | 264 kts | 134° |
| 2026-05-04 21:12 | -17.71626 | -63.03467 | 3156 ft | 259 kts | 162° |
| 2026-05-04 21:12 | -17.73349 | -63.03223 | 3021 ft | 245 kts | 190° |
| 2026-05-04 21:12 | -17.74835 | -63.03791 | 2995 ft | 214 kts | 230° |
| 2026-05-04 21:12 | -17.75445 | -63.04956 | 2990 ft | 165 kts | 276° |
| 2026-05-04 21:13 | -17.75197 | -63.05994 | 2988 ft | 138 kts | 307° |
| 2026-05-04 21:13 | -17.74573 | -63.06713 | 2997 ft | 132 kts | 324° |
| 2026-05-04 21:13 | -17.73796 | -63.07219 | 3009 ft | 131 kts | 331° |
| 2026-05-04 21:13 | -17.73037 | -63.07681 | 2953 ft | 127 kts | 329° |
| 2026-05-04 21:14 | -17.72287 | -63.08219 | 2769 ft | 136 kts | 327° |
| 2026-05-04 21:14 | -17.71501 | -63.08776 | 2580 ft | 137 kts | 328° |
| 2026-05-04 21:14 | -17.70700 | -63.09316 | 2347 ft | 134 kts | 329° |
| 2026-05-04 21:14 | -17.69944 | -63.09836 | 2163 ft | 128 kts | 329° |
| 2026-05-04 21:15 | -17.69175 | -63.10362 | 2082 ft | 138 kts | 327° |
| 2026-05-04 21:15 | -17.68350 | -63.10908 | 1870 ft | 137 kts | 326° |
| 2026-05-04 21:15 | -17.67557 | -63.11449 | 1728 ft | 138 kts | 327° |
| 2026-05-04 21:15 | -17.66757 | -63.11993 | 1478 ft | 132 kts | 328° |
| 2026-05-04 21:16 | -17.65999 | -63.12511 | 1339 ft | 130 kts | 330° |
| 2026-05-04 21:16 | -17.65244 | -63.13012 | 1241 ft | 118 kts | 328° |
| 2026-05-04 21:16 | -17.64691 | -63.13387 | 1232 ft | 70 kts | 327° |
| 2026-05-04 21:16 | -17.64338 | -63.13628 | 1231 ft | 52 kts | 327° |
| 2026-05-04 21:17 | -17.64065 | -63.13811 | 1228 ft | 42 kts | 327° |
| 2026-05-04 21:17 | -17.63907 | -63.13932 | 1228 ft | 22 kts | 291° |
| 2026-05-04 21:17 | -17.63948 | -63.14058 | 1230 ft | 14 kts | 233° |
| 2026-05-04 21:17 | -17.64065 | -63.14046 | 1231 ft | 28 kts | 145° |
| 2026-05-04 21:18 | -17.64266 | -63.13911 | 1231 ft | 31 kts | 149° |
| 2026-05-04 21:18 | -17.64393 | -63.13866 | 1231 ft | 10 kts | 219° |
| 2026-05-04 21:18 | -17.64465 | -63.13968 | 1231 ft | 24 kts | 236° |
| 2026-05-04 21:18 | -17.64525 | -63.14020 | 1231 ft | 15 kts | 186° |
| 2026-05-04 21:19 | -17.64647 | -63.13951 | 1231 ft | 19 kts | 147° |
| 2026-05-04 21:19 | -17.64725 | -63.13915 | 1231 ft | 9 kts | 203° |
| 2026-05-04 21:19 | -17.64749 | -63.13951 | 1231 ft | 2 kts | 239° |
| 2026-05-04 21:19 | -17.64762 | -63.13972 | 1231 ft | 2 kts | 237° |
| 2026-05-04 21:20 | -17.64763 | -63.13973 | 1231 ft | 0 kts | 237° |